sensor_id;sensor_type;location;lat;lon;timestamp;temperature;humidity
23251;DHT22;11794;49.730;10.088;2023-02-21T00:01:06;5.90;99.90
23251;DHT22;11794;49.730;10.088;2023-02-21T00:03:49;5.90;99.90
23251;DHT22;11794;49.730;10.088;2023-02-21T00:06:33;5.80;99.90
23251;DHT22;11794;49.730;10.088;2023-02-21T00:09:17;5.70;99.90
23251;DHT22;11794;49.730;10.088;2023-02-21T00:12:01;5.70;99.90
23251;DHT22;11794;49.730;10.088;2023-02-21T00:14:45;5.70;99.90
23251;DHT22;11794;49.730;10.088;2023-02-21T00:17:30;5.60;99.90
23251;DHT22;11794;49.730;10.088;2023-02-21T00:20:14;5.50;99.90
23251;DHT22;11794;49.730;10.088;2023-02-21T00:22:58;5.50;99.90
23251;DHT22;11794;49.730;10.088;2023-02-21T00:25:42;5.40;99.90
23251;DHT22;11794;49.730;10.088;2023-02-21T00:28:26;5.30;99.90
23251;DHT22;11794;49.730;10.088;2023-02-21T00:31:10;5.10;99.90
23251;DHT22;11794;49.730;10.088;2023-02-21T00:33:54;5.00;99.90
23251;DHT22;11794;49.730;10.088;2023-02-21T00:36:38;5.00;99.90
23251;DHT22;11794;49.730;10.088;2023-02-21T00:39:22;5.10;99.90
23251;DHT22;11794;49.730;10.088;2023-02-21T00:42:06;5.10;99.90
23251;DHT22;11794;49.730;10.088;2023-02-21T00:44:50;5.10;99.90
23251;DHT22;11794;49.730;10.088;2023-02-21T00:47:34;5.10;99.90
23251;DHT22;11794;49.730;10.088;2023-02-21T00:50:18;4.90;99.90
23251;DHT22;11794;49.730;10.088;2023-02-21T00:53:02;4.90;99.90
23251;DHT22;11794;49.730;10.088;2023-02-21T00:55:46;4.90;99.90
23251;DHT22;11794;49.730;10.088;2023-02-21T00:58:30;4.80;99.90
23251;DHT22;11794;49.730;10.088;2023-02-21T01:01:14;4.70;99.90
23251;DHT22;11794;49.730;10.088;2023-02-21T01:03:58;4.70;99.90
23251;DHT22;11794;49.730;10.088;2023-02-21T01:06:42;4.70;99.90
23251;DHT22;11794;49.730;10.088;2023-02-21T01:09:26;4.60;99.90
23251;DHT22;11794;49.730;10.088;2023-02-21T01:12:11;4.50;99.90
23251;DHT22;11794;49.730;10.088;2023-02-21T01:14:55;4.50;99.90
23251;DHT22;11794;49.730;10.088;2023-02-21T01:17:39;4.50;99.90
23251;DHT22;11794;49.730;10.088;2023-02-21T01:20:23;4.50;99.90
23251;DHT22;11794;49.730;10.088;2023-02-21T01:23:07;4.30;99.90
23251;DHT22;11794;49.730;10.088;2023-02-21T01:25:51;4.10;99.90
23251;DHT22;11794;49.730;10.088;2023-02-21T01:28:35;4.00;99.90
23251;DHT22;11794;49.730;10.088;2023-02-21T01:31:20;4.00;99.90
23251;DHT22;11794;49.730;10.088;2023-02-21T01:34:04;3.90;99.90
23251;DHT22;11794;49.730;10.088;2023-02-21T01:36:48;3.80;99.90
23251;DHT22;11794;49.730;10.088;2023-02-21T01:39:33;3.80;99.90
23251;DHT22;11794;49.730;10.088;2023-02-21T01:42:17;3.80;99.90
23251;DHT22;11794;49.730;10.088;2023-02-21T01:48:08;3.80;99.90
23251;DHT22;11794;49.730;10.088;2023-02-21T01:50:53;3.70;99.90
23251;DHT22;11794;49.730;10.088;2023-02-21T01:53:39;3.80;99.90
23251;DHT22;11794;49.730;10.088;2023-02-21T01:56:23;3.70;99.90
23251;DHT22;11794;49.730;10.088;2023-02-21T01:59:07;3.70;99.90
23251;DHT22;11794;49.730;10.088;2023-02-21T02:02:56;3.60;99.90
23251;DHT22;11794;49.730;10.088;2023-02-21T02:05:10;3.60;99.90
23251;DHT22;11794;49.730;10.088;2023-02-21T02:07:55;3.50;99.90
23251;DHT22;11794;49.730;10.088;2023-02-21T02:10:40;3.50;99.90
23251;DHT22;11794;49.730;10.088;2023-02-21T02:24:47;3.50;99.90
23251;DHT22;11794;49.730;10.088;2023-02-21T02:27:31;3.60;99.90
23251;DHT22;11794;49.730;10.088;2023-02-21T02:33:22;4.00;99.90
23251;DHT22;11794;49.730;10.088;2023-02-21T02:38:45;4.20;99.90
23251;DHT22;11794;49.730;10.088;2023-02-21T02:43:50;4.30;99.90
23251;DHT22;11794;49.730;10.088;2023-02-21T02:46:25;4.30;99.90
23251;DHT22;11794;49.730;10.088;2023-02-21T02:48:54;4.30;99.90
23251;DHT22;11794;49.730;10.088;2023-02-21T02:51:20;4.30;99.90
23251;DHT22;11794;49.730;10.088;2023-02-21T02:53:46;4.40;99.90
23251;DHT22;11794;49.730;10.088;2023-02-21T02:56:15;4.40;99.90
23251;DHT22;11794;49.730;10.088;2023-02-21T02:58:51;4.50;99.90
23251;DHT22;11794;49.730;10.088;2023-02-21T03:06:58;4.90;99.90
23251;DHT22;11794;49.730;10.088;2023-02-21T03:09:52;5.00;99.90
23251;DHT22;11794;49.730;10.088;2023-02-21T03:12:50;5.20;99.90
23251;DHT22;11794;49.730;10.088;2023-02-21T03:15:26;5.30;99.90
23251;DHT22;11794;49.730;10.088;2023-02-21T03:17:59;5.40;99.90
23251;DHT22;11794;49.730;10.088;2023-02-21T03:20:28;5.40;99.90
23251;DHT22;11794;49.730;10.088;2023-02-21T03:22:55;5.40;99.90
23251;DHT22;11794;49.730;10.088;2023-02-21T03:25:22;5.30;99.90
23251;DHT22;11794;49.730;10.088;2023-02-21T03:27:50;5.40;99.90
23251;DHT22;11794;49.730;10.088;2023-02-21T03:30:17;5.40;99.90
23251;DHT22;11794;49.730;10.088;2023-02-21T03:32:46;5.50;99.90
23251;DHT22;11794;49.730;10.088;2023-02-21T03:35:13;5.50;99.90
23251;DHT22;11794;49.730;10.088;2023-02-21T03:37:44;5.60;99.90
23251;DHT22;11794;49.730;10.088;2023-02-21T03:40:15;5.60;99.90
23251;DHT22;11794;49.730;10.088;2023-02-21T03:42:41;5.70;99.90
23251;DHT22;11794;49.730;10.088;2023-02-21T03:45:07;5.80;99.90
23251;DHT22;11794;49.730;10.088;2023-02-21T03:47:32;5.70;99.90
23251;DHT22;11794;49.730;10.088;2023-02-21T03:49:58;5.80;99.90
23251;DHT22;11794;49.730;10.088;2023-02-21T03:52:23;5.80;99.90
23251;DHT22;11794;49.730;10.088;2023-02-21T03:54:49;5.70;99.90
23251;DHT22;11794;49.730;10.088;2023-02-21T03:57:14;5.70;99.90
23251;DHT22;11794;49.730;10.088;2023-02-21T03:59:40;5.70;99.90
23251;DHT22;11794;49.730;10.088;2023-02-21T04:02:05;5.70;99.90
23251;DHT22;11794;49.730;10.088;2023-02-21T04:04:31;5.80;99.90
23251;DHT22;11794;49.730;10.088;2023-02-21T04:06:56;5.80;99.90
23251;DHT22;11794;49.730;10.088;2023-02-21T04:09:22;5.80;99.90
23251;DHT22;11794;49.730;10.088;2023-02-21T04:11:47;5.80;99.90
23251;DHT22;11794;49.730;10.088;2023-02-21T04:14:13;5.80;99.90
23251;DHT22;11794;49.730;10.088;2023-02-21T04:16:39;5.90;99.90
23251;DHT22;11794;49.730;10.088;2023-02-21T04:19:05;5.80;99.90
23251;DHT22;11794;49.730;10.088;2023-02-21T04:21:31;5.80;99.90
23251;DHT22;11794;49.730;10.088;2023-02-21T04:23:56;5.70;99.90
23251;DHT22;11794;49.730;10.088;2023-02-21T04:26:22;5.60;99.90
23251;DHT22;11794;49.730;10.088;2023-02-21T04:28:51;5.50;99.90
23251;DHT22;11794;49.730;10.088;2023-02-21T04:31:17;5.40;99.90
23251;DHT22;11794;49.730;10.088;2023-02-21T04:33:42;5.30;99.90
23251;DHT22;11794;49.730;10.088;2023-02-21T04:36:08;5.20;99.90
23251;DHT22;11794;49.730;10.088;2023-02-21T04:38:34;5.20;99.90
23251;DHT22;11794;49.730;10.088;2023-02-21T04:41:02;5.10;99.90
23251;DHT22;11794;49.730;10.088;2023-02-21T04:43:28;5.00;99.90
23251;DHT22;11794;49.730;10.088;2023-02-21T04:45:53;5.00;99.90
23251;DHT22;11794;49.730;10.088;2023-02-21T04:48:19;4.90;99.90
23251;DHT22;11794;49.730;10.088;2023-02-21T04:50:45;4.90;99.90
23251;DHT22;11794;49.730;10.088;2023-02-21T04:53:10;4.80;99.90
23251;DHT22;11794;49.730;10.088;2023-02-21T04:55:36;4.80;99.90
23251;DHT22;11794;49.730;10.088;2023-02-21T04:58:01;4.80;99.90
23251;DHT22;11794;49.730;10.088;2023-02-21T05:00:27;4.80;99.90
23251;DHT22;11794;49.730;10.088;2023-02-21T05:02:53;4.70;99.90
23251;DHT22;11794;49.730;10.088;2023-02-21T05:05:18;4.70;99.90
23251;DHT22;11794;49.730;10.088;2023-02-21T05:07:44;4.60;99.90
23251;DHT22;11794;49.730;10.088;2023-02-21T05:10:10;4.60;99.90
23251;DHT22;11794;49.730;10.088;2023-02-21T05:12:36;4.50;99.90
23251;DHT22;11794;49.730;10.088;2023-02-21T05:15:04;4.50;99.90
23251;DHT22;11794;49.730;10.088;2023-02-21T05:17:30;4.40;99.90
23251;DHT22;11794;49.730;10.088;2023-02-21T05:19:55;4.40;99.90
23251;DHT22;11794;49.730;10.088;2023-02-21T05:22:21;4.50;99.90
23251;DHT22;11794;49.730;10.088;2023-02-21T05:24:47;4.50;99.90
23251;DHT22;11794;49.730;10.088;2023-02-21T05:27:14;4.60;99.90
23251;DHT22;11794;49.730;10.088;2023-02-21T05:29:52;4.70;99.90
23251;DHT22;11794;49.730;10.088;2023-02-21T05:32:20;4.80;99.90
23251;DHT22;11794;49.730;10.088;2023-02-21T05:34:46;4.90;99.90
23251;DHT22;11794;49.730;10.088;2023-02-21T05:37:16;4.90;99.90
23251;DHT22;11794;49.730;10.088;2023-02-21T05:39:41;4.90;99.90
23251;DHT22;11794;49.730;10.088;2023-02-21T05:42:07;4.90;99.90
23251;DHT22;11794;49.730;10.088;2023-02-21T05:44:33;4.90;99.90
23251;DHT22;11794;49.730;10.088;2023-02-21T05:46:59;4.90;99.90
23251;DHT22;11794;49.730;10.088;2023-02-21T05:49:26;4.90;99.90
23251;DHT22;11794;49.730;10.088;2023-02-21T05:51:52;4.80;99.90
23251;DHT22;11794;49.730;10.088;2023-02-21T05:54:20;4.80;99.90
23251;DHT22;11794;49.730;10.088;2023-02-21T05:56:47;4.80;99.90
23251;DHT22;11794;49.730;10.088;2023-02-21T05:59:14;4.90;99.90
23251;DHT22;11794;49.730;10.088;2023-02-21T06:01:40;5.00;99.90
23251;DHT22;11794;49.730;10.088;2023-02-21T06:04:06;5.10;99.90
23251;DHT22;11794;49.730;10.088;2023-02-21T06:06:33;5.20;99.90
23251;DHT22;11794;49.730;10.088;2023-02-21T06:08:58;5.20;99.90
23251;DHT22;11794;49.730;10.088;2023-02-21T06:11:27;5.30;99.90
23251;DHT22;11794;49.730;10.088;2023-02-21T06:13:54;5.40;99.90
23251;DHT22;11794;49.730;10.088;2023-02-21T06:16:21;5.40;99.90
23251;DHT22;11794;49.730;10.088;2023-02-21T06:18:51;5.40;99.90
23251;DHT22;11794;49.730;10.088;2023-02-21T06:21:17;5.40;99.90
23251;DHT22;11794;49.730;10.088;2023-02-21T06:23:42;5.40;99.90
23251;DHT22;11794;49.730;10.088;2023-02-21T06:26:08;5.30;99.90
23251;DHT22;11794;49.730;10.088;2023-02-21T06:28:33;5.30;99.90
23251;DHT22;11794;49.730;10.088;2023-02-21T06:30:59;5.20;99.90
23251;DHT22;11794;49.730;10.088;2023-02-21T06:33:25;5.20;99.90
23251;DHT22;11794;49.730;10.088;2023-02-21T06:35:50;5.20;99.90
23251;DHT22;11794;49.730;10.088;2023-02-21T06:38:16;5.10;99.90
23251;DHT22;11794;49.730;10.088;2023-02-21T06:40:41;5.00;99.90
23251;DHT22;11794;49.730;10.088;2023-02-21T06:43:08;5.00;99.90
23251;DHT22;11794;49.730;10.088;2023-02-21T06:45:33;5.00;99.90
23251;DHT22;11794;49.730;10.088;2023-02-21T06:47:59;5.00;99.90
23251;DHT22;11794;49.730;10.088;2023-02-21T06:50:24;5.00;99.90
23251;DHT22;11794;49.730;10.088;2023-02-21T06:52:50;5.10;99.90
23251;DHT22;11794;49.730;10.088;2023-02-21T06:55:20;5.20;99.90
23251;DHT22;11794;49.730;10.088;2023-02-21T06:57:46;5.40;99.90
23251;DHT22;11794;49.730;10.088;2023-02-21T07:00:12;5.40;99.90
23251;DHT22;11794;49.730;10.088;2023-02-21T07:02:37;5.50;99.90
23251;DHT22;11794;49.730;10.088;2023-02-21T07:05:04;5.80;99.90
23251;DHT22;11794;49.730;10.088;2023-02-21T07:07:29;6.20;99.90
23251;DHT22;11794;49.730;10.088;2023-02-21T07:09:55;6.80;99.90
23251;DHT22;11794;49.730;10.088;2023-02-21T07:12:20;7.10;99.90
23251;DHT22;11794;49.730;10.088;2023-02-21T07:14:46;7.50;99.90
23251;DHT22;11794;49.730;10.088;2023-02-21T07:17:11;7.90;99.90
23251;DHT22;11794;49.730;10.088;2023-02-21T07:19:37;8.10;99.90
23251;DHT22;11794;49.730;10.088;2023-02-21T07:22:02;8.50;99.90
23251;DHT22;11794;49.730;10.088;2023-02-21T07:24:28;8.90;99.90
23251;DHT22;11794;49.730;10.088;2023-02-21T07:26:54;9.10;99.90
23251;DHT22;11794;49.730;10.088;2023-02-21T07:29:19;9.30;99.90
23251;DHT22;11794;49.730;10.088;2023-02-21T07:31:45;9.50;99.90
23251;DHT22;11794;49.730;10.088;2023-02-21T07:34:10;9.60;99.90
23251;DHT22;11794;49.730;10.088;2023-02-21T07:36:37;9.80;99.90
23251;DHT22;11794;49.730;10.088;2023-02-21T07:39:02;10.20;99.90
23251;DHT22;11794;49.730;10.088;2023-02-21T07:41:28;10.40;99.90
23251;DHT22;11794;49.730;10.088;2023-02-21T07:43:54;10.60;99.90
23251;DHT22;11794;49.730;10.088;2023-02-21T07:46:19;10.80;99.90
23251;DHT22;11794;49.730;10.088;2023-02-21T07:48:45;11.10;99.90
23251;DHT22;11794;49.730;10.088;2023-02-21T07:51:11;11.10;99.90
23251;DHT22;11794;49.730;10.088;2023-02-21T07:53:36;11.10;99.90
23251;DHT22;11794;49.730;10.088;2023-02-21T07:56:03;10.90;99.90
23251;DHT22;11794;49.730;10.088;2023-02-21T07:58:28;11.00;99.90
23251;DHT22;11794;49.730;10.088;2023-02-21T08:00:54;10.90;99.90
23251;DHT22;11794;49.730;10.088;2023-02-21T08:03:20;10.40;99.90
23251;DHT22;11794;49.730;10.088;2023-02-21T08:05:46;10.10;99.90
23251;DHT22;11794;49.730;10.088;2023-02-21T08:08:13;9.40;99.90
23251;DHT22;11794;49.730;10.088;2023-02-21T08:10:39;8.90;99.90
23251;DHT22;11794;49.730;10.088;2023-02-21T08:13:04;8.80;99.90
23251;DHT22;11794;49.730;10.088;2023-02-21T08:15:30;8.80;99.90
23251;DHT22;11794;49.730;10.088;2023-02-21T08:17:55;8.60;99.90
23251;DHT22;11794;49.730;10.088;2023-02-21T08:20:21;8.80;99.90
23251;DHT22;11794;49.730;10.088;2023-02-21T08:22:46;9.00;99.90
23251;DHT22;11794;49.730;10.088;2023-02-21T08:25:13;9.10;99.90
23251;DHT22;11794;49.730;10.088;2023-02-21T08:27:41;9.00;99.90
23251;DHT22;11794;49.730;10.088;2023-02-21T08:30:10;8.80;99.90
23251;DHT22;11794;49.730;10.088;2023-02-21T08:32:36;8.70;99.90
23251;DHT22;11794;49.730;10.088;2023-02-21T08:35:02;8.70;99.90
23251;DHT22;11794;49.730;10.088;2023-02-21T08:37:30;8.80;99.90
23251;DHT22;11794;49.730;10.088;2023-02-21T08:39:58;8.70;99.90
23251;DHT22;11794;49.730;10.088;2023-02-21T08:42:24;8.70;99.90
23251;DHT22;11794;49.730;10.088;2023-02-21T08:44:50;8.80;99.90
23251;DHT22;11794;49.730;10.088;2023-02-21T08:47:16;8.80;99.90
23251;DHT22;11794;49.730;10.088;2023-02-21T08:49:46;9.00;99.90
23251;DHT22;11794;49.730;10.088;2023-02-21T08:52:12;9.00;99.90
23251;DHT22;11794;49.730;10.088;2023-02-21T08:54:39;8.90;99.90
23251;DHT22;11794;49.730;10.088;2023-02-21T08:57:04;9.00;99.90
23251;DHT22;11794;49.730;10.088;2023-02-21T08:59:30;9.10;99.90
23251;DHT22;11794;49.730;10.088;2023-02-21T09:01:58;9.10;99.90
23251;DHT22;11794;49.730;10.088;2023-02-21T09:04:24;9.20;99.90
23251;DHT22;11794;49.730;10.088;2023-02-21T09:06:52;9.20;99.90
23251;DHT22;11794;49.730;10.088;2023-02-21T09:09:18;9.20;99.90
23251;DHT22;11794;49.730;10.088;2023-02-21T09:11:45;9.20;99.90
23251;DHT22;11794;49.730;10.088;2023-02-21T09:14:13;9.20;99.90
23251;DHT22;11794;49.730;10.088;2023-02-21T09:16:38;9.10;99.90
23251;DHT22;11794;49.730;10.088;2023-02-21T09:19:04;9.10;99.90
23251;DHT22;11794;49.730;10.088;2023-02-21T09:21:31;9.10;99.90
23251;DHT22;11794;49.730;10.088;2023-02-21T09:23:57;9.20;99.90
23251;DHT22;11794;49.730;10.088;2023-02-21T09:26:24;9.40;99.90
23251;DHT22;11794;49.730;10.088;2023-02-21T09:28:51;9.40;99.90
23251;DHT22;11794;49.730;10.088;2023-02-21T09:31:17;9.50;99.90
23251;DHT22;11794;49.730;10.088;2023-02-21T09:33:44;9.40;99.90
23251;DHT22;11794;49.730;10.088;2023-02-21T09:36:10;9.50;99.90
23251;DHT22;11794;49.730;10.088;2023-02-21T09:38:36;9.70;99.90
23251;DHT22;11794;49.730;10.088;2023-02-21T09:41:06;9.90;99.90
23251;DHT22;11794;49.730;10.088;2023-02-21T09:43:38;10.00;99.90
23251;DHT22;11794;49.730;10.088;2023-02-21T09:46:54;10.10;99.90
23251;DHT22;11794;49.730;10.088;2023-02-21T09:48:54;10.00;99.90
23251;DHT22;11794;49.730;10.088;2023-02-21T09:51:19;10.10;99.90
23251;DHT22;11794;49.730;10.088;2023-02-21T09:53:47;10.10;99.90
23251;DHT22;11794;49.730;10.088;2023-02-21T09:56:20;10.10;99.90
23251;DHT22;11794;49.730;10.088;2023-02-21T09:58:46;10.10;99.90
23251;DHT22;11794;49.730;10.088;2023-02-21T10:01:39;10.10;99.90
23251;DHT22;11794;49.730;10.088;2023-02-21T10:04:33;10.20;99.90
23251;DHT22;11794;49.730;10.088;2023-02-21T10:07:04;10.40;99.90
23251;DHT22;11794;49.730;10.088;2023-02-21T10:09:59;10.50;99.90
23251;DHT22;11794;49.730;10.088;2023-02-21T10:12:36;10.60;99.90
23251;DHT22;11794;49.730;10.088;2023-02-21T10:18:00;10.70;99.90
23251;DHT22;11794;49.730;10.088;2023-02-21T10:20:38;10.90;99.90
23251;DHT22;11794;49.730;10.088;2023-02-21T10:23:14;11.00;99.90
23251;DHT22;11794;49.730;10.088;2023-02-21T10:25:43;11.20;99.90
23251;DHT22;11794;49.730;10.088;2023-02-21T10:28:17;11.30;99.90
23251;DHT22;11794;49.730;10.088;2023-02-21T10:30:43;11.60;99.90
23251;DHT22;11794;49.730;10.088;2023-02-21T10:33:09;11.90;99.90
23251;DHT22;11794;49.730;10.088;2023-02-21T10:35:36;12.10;99.90
23251;DHT22;11794;49.730;10.088;2023-02-21T10:38:06;12.20;99.90
23251;DHT22;11794;49.730;10.088;2023-02-21T10:43:39;12.30;99.90
23251;DHT22;11794;49.730;10.088;2023-02-21T10:46:27;12.40;99.90
23251;DHT22;11794;49.730;10.088;2023-02-21T10:49:08;12.40;99.90
23251;DHT22;11794;49.730;10.088;2023-02-21T10:51:37;12.40;99.90
23251;DHT22;11794;49.730;10.088;2023-02-21T10:54:22;12.70;99.90
23251;DHT22;11794;49.730;10.088;2023-02-21T10:56:49;13.00;99.90
23251;DHT22;11794;49.730;10.088;2023-02-21T10:59:26;13.30;99.90
23251;DHT22;11794;49.730;10.088;2023-02-21T11:01:52;13.20;99.90
23251;DHT22;11794;49.730;10.088;2023-02-21T11:06:46;13.00;99.90
23251;DHT22;11794;49.730;10.088;2023-02-21T11:09:36;13.00;99.90
23251;DHT22;11794;49.730;10.088;2023-02-21T11:15:04;13.20;99.90
23251;DHT22;11794;49.730;10.088;2023-02-21T11:17:30;13.30;99.90
23251;DHT22;11794;49.730;10.088;2023-02-21T11:20:14;13.40;99.90
23251;DHT22;11794;49.730;10.088;2023-02-21T11:22:43;13.60;99.90
23251;DHT22;11794;49.730;10.088;2023-02-21T11:27:42;13.40;99.90
23251;DHT22;11794;49.730;10.088;2023-02-21T11:30:20;13.40;99.90
23251;DHT22;11794;49.730;10.088;2023-02-21T11:32:51;13.50;99.90
23251;DHT22;11794;49.730;10.088;2023-02-21T11:40:54;14.10;99.90
23251;DHT22;11794;49.730;10.088;2023-02-21T11:43:30;14.20;99.90
23251;DHT22;11794;49.730;10.088;2023-02-21T11:49:16;14.10;99.90
23251;DHT22;11794;49.730;10.088;2023-02-21T11:54:11;13.80;99.90
23251;DHT22;11794;49.730;10.088;2023-02-21T11:59:45;15.00;99.90
23251;DHT22;11794;49.730;10.088;2023-02-21T12:02:25;15.60;99.90
23251;DHT22;11794;49.730;10.088;2023-02-21T12:05:29;16.70;99.90
23251;DHT22;11794;49.730;10.088;2023-02-21T12:14:13;18.10;99.90
23251;DHT22;11794;49.730;10.088;2023-02-21T12:17:15;18.20;99.90
23251;DHT22;11794;49.730;10.088;2023-02-21T12:20:18;17.90;99.90
23251;DHT22;11794;49.730;10.088;2023-02-21T12:22:57;18.20;99.90
23251;DHT22;11794;49.730;10.088;2023-02-21T12:29:04;17.50;99.90
23251;DHT22;11794;49.730;10.088;2023-02-21T12:31:48;16.20;99.90
23251;DHT22;11794;49.730;10.088;2023-02-21T12:34:41;15.50;99.90
23251;DHT22;11794;49.730;10.088;2023-02-21T12:40:28;14.40;99.90
23251;DHT22;11794;49.730;10.088;2023-02-21T12:48:45;13.80;99.90
23251;DHT22;11794;49.730;10.088;2023-02-21T12:51:17;13.70;99.90
23251;DHT22;11794;49.730;10.088;2023-02-21T12:54:05;13.90;99.90
23251;DHT22;11794;49.730;10.088;2023-02-21T12:56:38;14.10;99.90
23251;DHT22;11794;49.730;10.088;2023-02-21T12:59:16;14.30;99.90
23251;DHT22;11794;49.730;10.088;2023-02-21T13:01:54;14.30;99.90
23251;DHT22;11794;49.730;10.088;2023-02-21T13:04:45;14.40;99.90
23251;DHT22;11794;49.730;10.088;2023-02-21T13:07:29;14.40;99.90
23251;DHT22;11794;49.730;10.088;2023-02-21T13:10:12;14.50;99.90
23251;DHT22;11794;49.730;10.088;2023-02-21T13:12:57;14.60;99.90
23251;DHT22;11794;49.730;10.088;2023-02-21T13:15:27;14.70;99.90
23251;DHT22;11794;49.730;10.088;2023-02-21T13:18:15;15.10;99.90
23251;DHT22;11794;49.730;10.088;2023-02-21T13:20:47;15.30;99.90
23251;DHT22;11794;49.730;10.088;2023-02-21T13:23:32;15.60;99.90
23251;DHT22;11794;49.730;10.088;2023-02-21T13:29:31;17.80;99.90
23251;DHT22;11794;49.730;10.088;2023-02-21T13:32:05;20.90;99.90
23251;DHT22;11794;49.730;10.088;2023-02-21T13:34:40;23.30;99.90
23251;DHT22;11794;49.730;10.088;2023-02-21T13:37:21;24.00;99.90
23251;DHT22;11794;49.730;10.088;2023-02-21T13:40:23;25.20;99.90
23251;DHT22;11794;49.730;10.088;2023-02-21T13:43:44;26.10;99.90
23251;DHT22;11794;49.730;10.088;2023-02-21T13:45:44;26.10;99.20
23251;DHT22;11794;49.730;10.088;2023-02-21T13:50:56;24.50;98.70
23251;DHT22;11794;49.730;10.088;2023-02-21T13:53:34;24.70;99.30
23251;DHT22;11794;49.730;10.088;2023-02-21T13:56:18;24.60;98.50
23251;DHT22;11794;49.730;10.088;2023-02-21T13:58:48;22.70;99.90
23251;DHT22;11794;49.730;10.088;2023-02-21T14:03:47;19.70;99.90
23251;DHT22;11794;49.730;10.088;2023-02-21T14:06:33;21.00;99.90
23251;DHT22;11794;49.730;10.088;2023-02-21T14:09:07;23.20;99.90
23251;DHT22;11794;49.730;10.088;2023-02-21T14:11:37;23.20;99.70
23251;DHT22;11794;49.730;10.088;2023-02-21T14:14:26;23.80;99.30
23251;DHT22;11794;49.730;10.088;2023-02-21T14:16:58;24.90;98.20
23251;DHT22;11794;49.730;10.088;2023-02-21T14:22:15;25.80;96.60
23251;DHT22;11794;49.730;10.088;2023-02-21T14:24:47;26.20;96.20
23251;DHT22;11794;49.730;10.088;2023-02-21T14:39:57;22.50;98.90
23251;DHT22;11794;49.730;10.088;2023-02-21T14:45:21;22.60;99.60
23251;DHT22;11794;49.730;10.088;2023-02-21T15:01:44;23.80;97.70
23251;DHT22;11794;49.730;10.088;2023-02-21T15:04:23;22.70;98.50
23251;DHT22;11794;49.730;10.088;2023-02-21T15:06:58;22.30;99.30
23251;DHT22;11794;49.730;10.088;2023-02-21T15:09:25;22.40;99.30
23251;DHT22;11794;49.730;10.088;2023-02-21T15:11:51;23.00;98.70
23251;DHT22;11794;49.730;10.088;2023-02-21T15:14:20;22.40;99.00
23251;DHT22;11794;49.730;10.088;2023-02-21T15:16:50;22.70;99.10
23251;DHT22;11794;49.730;10.088;2023-02-21T15:19:35;23.60;98.30
23251;DHT22;11794;49.730;10.088;2023-02-21T15:22:21;24.50;96.90
23251;DHT22;11794;49.730;10.088;2023-02-21T15:27:31;24.60;96.50
23251;DHT22;11794;49.730;10.088;2023-02-21T15:30:15;24.50;96.60
23251;DHT22;11794;49.730;10.088;2023-02-21T15:32:42;24.20;96.70
23251;DHT22;11794;49.730;10.088;2023-02-21T15:35:17;23.60;97.20
23251;DHT22;11794;49.730;10.088;2023-02-21T15:37:45;23.00;97.80
23251;DHT22;11794;49.730;10.088;2023-02-21T15:40:17;22.50;98.50
23251;DHT22;11794;49.730;10.088;2023-02-21T15:42:44;21.50;99.70
23251;DHT22;11794;49.730;10.088;2023-02-21T15:45:21;21.10;99.90
23251;DHT22;11794;49.730;10.088;2023-02-21T15:47:48;21.20;99.90
23251;DHT22;11794;49.730;10.088;2023-02-21T15:52:43;21.30;99.90
23251;DHT22;11794;49.730;10.088;2023-02-21T16:00:24;20.30;99.90
23251;DHT22;11794;49.730;10.088;2023-02-21T16:02:50;20.10;99.90
23251;DHT22;11794;49.730;10.088;2023-02-21T16:05:27;20.00;99.90
23251;DHT22;11794;49.730;10.088;2023-02-21T16:07:53;19.60;99.90
23251;DHT22;11794;49.730;10.088;2023-02-21T16:10:24;19.50;99.90
23251;DHT22;11794;49.730;10.088;2023-02-21T16:12:56;19.10;99.90
23251;DHT22;11794;49.730;10.088;2023-02-21T16:15:31;18.30;99.90
23251;DHT22;11794;49.730;10.088;2023-02-21T16:18:01;17.40;99.90
23251;DHT22;11794;49.730;10.088;2023-02-21T16:20:36;16.50;99.90
23251;DHT22;11794;49.730;10.088;2023-02-21T16:23:25;16.00;99.90
23251;DHT22;11794;49.730;10.088;2023-02-21T16:28:23;15.10;99.90
23251;DHT22;11794;49.730;10.088;2023-02-21T16:30:48;14.80;99.90
23251;DHT22;11794;49.730;10.088;2023-02-21T16:33:14;14.50;99.90
23251;DHT22;11794;49.730;10.088;2023-02-21T16:35:40;14.30;99.90
23251;DHT22;11794;49.730;10.088;2023-02-21T16:38:06;13.90;99.90
23251;DHT22;11794;49.730;10.088;2023-02-21T16:40:34;13.80;99.90
23251;DHT22;11794;49.730;10.088;2023-02-21T16:43:02;13.60;99.90
23251;DHT22;11794;49.730;10.088;2023-02-21T16:45:29;13.40;99.90
23251;DHT22;11794;49.730;10.088;2023-02-21T16:48:00;13.30;99.90
23251;DHT22;11794;49.730;10.088;2023-02-21T16:52:55;12.90;99.90
23251;DHT22;11794;49.730;10.088;2023-02-21T16:55:20;12.60;99.90
23251;DHT22;11794;49.730;10.088;2023-02-21T16:57:48;12.40;99.90
23251;DHT22;11794;49.730;10.088;2023-02-21T17:00:16;12.30;99.90
23251;DHT22;11794;49.730;10.088;2023-02-21T17:02:44;12.10;99.90
23251;DHT22;11794;49.730;10.088;2023-02-21T17:05:09;11.90;99.90
23251;DHT22;11794;49.730;10.088;2023-02-21T17:07:36;11.70;99.90
23251;DHT22;11794;49.730;10.088;2023-02-21T17:10:02;11.50;99.90
23251;DHT22;11794;49.730;10.088;2023-02-21T17:12:28;11.40;99.90
23251;DHT22;11794;49.730;10.088;2023-02-21T17:14:54;11.20;99.90
23251;DHT22;11794;49.730;10.088;2023-02-21T17:17:19;11.10;99.90
23251;DHT22;11794;49.730;10.088;2023-02-21T17:19:45;11.10;99.90
23251;DHT22;11794;49.730;10.088;2023-02-21T17:22:10;11.00;99.90
23251;DHT22;11794;49.730;10.088;2023-02-21T17:24:36;10.90;99.90
23251;DHT22;11794;49.730;10.088;2023-02-21T17:27:01;10.80;99.90
23251;DHT22;11794;49.730;10.088;2023-02-21T17:29:27;10.60;99.90
23251;DHT22;11794;49.730;10.088;2023-02-21T17:31:54;10.50;99.90
23251;DHT22;11794;49.730;10.088;2023-02-21T17:34:20;10.30;99.90
23251;DHT22;11794;49.730;10.088;2023-02-21T17:36:52;10.20;99.90
23251;DHT22;11794;49.730;10.088;2023-02-21T17:39:19;10.00;99.90
23251;DHT22;11794;49.730;10.088;2023-02-21T17:41:49;10.00;99.90
23251;DHT22;11794;49.730;10.088;2023-02-21T17:44:16;9.90;99.90
23251;DHT22;11794;49.730;10.088;2023-02-21T17:46:51;9.90;99.90
23251;DHT22;11794;49.730;10.088;2023-02-21T17:49:18;9.80;99.90
23251;DHT22;11794;49.730;10.088;2023-02-21T17:51:45;9.70;99.90
23251;DHT22;11794;49.730;10.088;2023-02-21T17:54:12;9.60;99.90
23251;DHT22;11794;49.730;10.088;2023-02-21T17:56:38;9.50;99.90
23251;DHT22;11794;49.730;10.088;2023-02-21T17:59:04;9.40;99.90
23251;DHT22;11794;49.730;10.088;2023-02-21T18:01:29;9.40;99.90
23251;DHT22;11794;49.730;10.088;2023-02-21T18:03:56;9.30;99.90
23251;DHT22;11794;49.730;10.088;2023-02-21T18:06:22;9.20;99.90